createdAt,value
2019-04-22T00:00:02.863Z,9.6
2019-04-22T00:05:13.008Z,9.5
2019-04-22T00:10:32.018Z,9.4
2019-04-22T00:15:19.319Z,9.3
2019-04-22T00:20:29.771Z,9.2
2019-04-22T00:25:26.074Z,9.2
2019-04-22T00:30:40.285Z,9
2019-04-22T00:35:23.472Z,8.9
2019-04-22T00:40:28.063Z,8.8
2019-04-22T00:45:26.574Z,8.6
2019-04-22T00:55:24.397Z,8.5
2019-04-22T01:00:30.606Z,8.4
2019-04-22T01:05:27.117Z,8.3
2019-04-22T01:10:38.720Z,8.3
2019-04-22T01:15:28.435Z,8.3
2019-04-22T01:25:18.772Z,8.1
2019-04-22T01:30:14.381Z,8
2019-04-22T01:35:12.705Z,8
2019-04-22T01:40:30.799Z,7.8
2019-04-22T01:50:25.654Z,7.7
2019-04-22T01:55:30.682Z,7.6
2019-04-22T02:00:22.552Z,7.6
2019-04-22T02:05:28.491Z,7.6
2019-04-22T02:10:34.420Z,7.5
2019-04-22T02:15:30.859Z,7.5
2019-04-22T02:20:30.971Z,7.3
2019-04-22T02:25:32.081Z,7.3
2019-04-22T02:30:33.073Z,7.2
2019-04-22T02:35:47.912Z,7.1
2019-04-22T02:40:44.078Z,7.1
2019-04-22T02:45:36.750Z,7
2019-04-22T02:50:27.856Z,6.9
2019-04-22T02:55:31.696Z,6.9
2019-04-22T03:05:36.242Z,6.8
2019-04-22T03:10:45.947Z,6.8
2019-04-22T03:15:29.594Z,6.7
2019-04-22T03:20:33.250Z,6.6
2019-04-22T03:40:36.210Z,6.5
2019-04-22T03:55:28.694Z,6.3
2019-04-22T04:00:47.298Z,6.3
2019-04-22T04:25:46.392Z,6.3
2019-04-22T04:30:31.078Z,6.3
2019-04-22T04:35:40.300Z,6.3
2019-04-22T04:40:30.969Z,6.4
2019-04-22T04:55:45.387Z,7.8
2019-04-22T05:05:31.241Z,9.4
2019-04-22T05:15:29.213Z,9.7
2019-04-22T05:20:40.351Z,9.7
2019-04-22T05:25:26.384Z,9.8
2019-04-22T05:30:31.832Z,9.8
2019-04-22T05:35:37.348Z,9.8
2019-04-22T05:40:27.870Z,10
2019-04-22T05:45:24.602Z,10.2
2019-04-22T05:50:22.709Z,10.4
2019-04-22T05:55:29.902Z,10.7
2019-04-22T06:05:30.139Z,11.5
2019-04-22T06:10:32.508Z,11.9
2019-04-22T06:15:23.206Z,12.2
2019-04-22T06:20:21.612Z,12.5
2019-04-22T06:25:36.509Z,12.7
2019-04-22T06:30:28.213Z,13
2019-04-22T06:35:36.084Z,13.1
2019-04-22T06:40:25.691Z,13.4
2019-04-22T06:45:28.458Z,13.4
2019-04-22T06:50:30.081Z,13.5
2019-04-22T06:55:35.290Z,13.8
2019-04-22T07:00:41.431Z,13.9
2019-04-22T07:05:27.305Z,14.1
2019-04-22T07:15:41.862Z,14.4
2019-04-22T07:25:22.923Z,15
2019-04-22T07:30:26.055Z,15.3
2019-04-22T07:35:28.359Z,15.2
2019-04-22T07:40:33.903Z,15.3
2019-04-22T07:45:29.090Z,15.5
2019-04-22T07:55:26.757Z,15.8
2019-04-22T08:00:28.902Z,16.1
2019-04-22T08:10:36.641Z,16.6
2019-04-22T08:15:26.498Z,16.7
2019-04-22T08:20:28.366Z,16.7
2019-04-22T08:25:24.384Z,16.9
2019-04-22T08:35:39.224Z,16.9
2019-04-22T08:40:27.398Z,17.1
2019-04-22T08:45:38.263Z,17.7
2019-04-22T08:50:26.499Z,17.8
2019-04-22T08:55:31.162Z,18.1
2019-04-22T09:00:29.044Z,18.2
2019-04-22T09:05:41.527Z,18.2
2019-04-22T09:10:29.582Z,17.7
2019-04-22T09:15:30.285Z,17.6
2019-04-22T09:20:25.737Z,17.9
2019-04-22T09:25:29.301Z,17.9
2019-04-22T09:30:33.952Z,18
2019-04-22T09:35:31.382Z,18.2
2019-04-22T09:40:28.157Z,18.6
2019-04-22T09:45:21.020Z,18.9
2019-04-22T09:50:28.977Z,19.2
2019-04-22T09:55:21.085Z,19.9
2019-04-22T10:00:26.728Z,20.4
2019-04-22T10:05:27.291Z,20.1
2019-04-22T10:10:26.639Z,19.6
2019-04-22T10:15:24.687Z,20.1
2019-04-22T10:20:26.761Z,20.2
2019-04-22T10:25:22.829Z,20.3
2019-04-22T10:30:33.015Z,20.3
2019-04-22T10:35:06.575Z,20.6
2019-04-22T10:40:04.688Z,20.7
2019-04-22T10:45:01.353Z,20.6
2019-04-22T10:50:02.582Z,20.8
2019-04-22T10:55:01.489Z,20.6
2019-04-22T11:00:02.863Z,20.6
2019-04-22T11:05:02.012Z,20.6
2019-04-22T11:10:20.251Z,20.6
2019-04-22T11:15:01.728Z,20.6
2019-04-22T11:20:01.951Z,20.4
2019-04-22T11:25:01.698Z,20.6
2019-04-22T11:30:01.949Z,20.7
2019-04-22T11:35:03.626Z,20.6
2019-04-22T11:40:11.224Z,20.5
2019-04-22T11:45:03.486Z,20.5
2019-04-22T11:50:02.056Z,20.2
2019-04-22T11:55:02.248Z,20.3
2019-04-22T12:00:03.037Z,20.1
2019-04-22T12:05:01.858Z,20.3
2019-04-22T12:10:15.035Z,20.5
2019-04-22T12:15:01.496Z,20.5
2019-04-22T12:20:04.734Z,20.8
2019-04-22T12:25:01.833Z,20.7
2019-04-22T12:30:02.878Z,20.7
2019-04-22T12:35:01.814Z,20.7
2019-04-22T12:40:02.639Z,20.9
2019-04-22T12:45:02.399Z,20.8
2019-04-22T12:50:08.691Z,20.9
2019-04-22T12:55:01.901Z,20.6
2019-04-22T13:00:01.960Z,20.7
2019-04-22T13:05:02.173Z,20.9
2019-04-22T13:10:01.696Z,20.8
2019-04-22T13:15:04.787Z,20.8
2019-04-22T13:20:02.581Z,20.7
2019-04-22T13:25:02.039Z,20.7
2019-04-22T13:30:04.523Z,20.7
2019-04-22T13:35:02.274Z,20.5
2019-04-22T13:40:03.410Z,20.3
2019-04-22T13:45:02.004Z,20.2
2019-04-22T13:50:32.420Z,20.1
2019-04-22T13:55:32.466Z,20
2019-04-22T14:00:02.714Z,20.1
2019-04-22T14:05:01.541Z,20.3
2019-04-22T14:10:02.557Z,20
2019-04-22T14:15:02.274Z,20
2019-04-22T14:20:02.582Z,19.8
2019-04-22T14:25:02.861Z,19.8
2019-04-22T14:30:01.966Z,19.8
2019-04-22T14:35:03.047Z,19.8
2019-04-22T14:40:06.782Z,19.8
2019-04-22T14:45:27.910Z,19.7
2019-04-22T14:50:21.656Z,19.7
2019-04-22T14:55:10.013Z,19.4
2019-04-22T15:00:02.254Z,19.3
2019-04-22T15:05:02.087Z,19.1
2019-04-22T15:10:02.171Z,18.9
2019-04-22T15:15:01.568Z,18.7
2019-04-22T15:20:01.612Z,18.4
2019-04-22T15:25:02.825Z,18.2
2019-04-22T15:30:03.517Z,18
2019-04-22T15:35:02.485Z,17.8
2019-04-22T15:40:02.794Z,17.8
2019-04-22T15:45:02.540Z,17.6
2019-04-22T15:50:01.937Z,17.5
2019-04-22T15:55:02.859Z,17.3
2019-04-22T16:00:14.166Z,17.2
2019-04-22T16:05:02.750Z,17.1
2019-04-22T16:10:01.949Z,17.2
2019-04-22T16:15:03.560Z,17.2
2019-04-22T16:20:03.505Z,17.3
2019-04-22T16:25:02.363Z,17.2
2019-04-22T16:30:03.409Z,17.1
2019-04-22T16:35:01.628Z,16.9
2019-04-22T16:40:03.020Z,16.4
2019-04-22T16:45:01.791Z,16.3
2019-04-22T16:50:01.928Z,16
2019-04-22T16:55:01.294Z,15.7
2019-04-22T17:00:02.816Z,15.5
2019-04-22T17:05:02.211Z,15.1
2019-04-22T17:10:02.055Z,14.8
2019-04-22T17:15:06.077Z,14.4
2019-04-22T17:20:03.026Z,14.2
2019-04-22T17:25:02.633Z,14.1
2019-04-22T17:30:02.467Z,13.8
2019-04-22T17:35:02.150Z,13.6
2019-04-22T17:40:14.511Z,13.4
2019-04-22T17:45:25.612Z,13.3
2019-04-22T17:50:26.277Z,13.1
2019-04-22T17:55:16.361Z,13
2019-04-22T18:00:18.337Z,12.9
2019-04-22T18:05:05.817Z,12.7
2019-04-22T18:10:30.629Z,12.6
2019-04-22T18:15:23.618Z,12.5
2019-04-22T18:20:17.343Z,12.4
2019-04-22T18:25:13.937Z,12.4
2019-04-22T18:30:17.598Z,12.3
2019-04-22T18:35:20.036Z,12.3
2019-04-22T18:40:17.955Z,12.2
2019-04-22T18:45:35.043Z,12.2
2019-04-22T18:50:25.840Z,12.2
2019-04-22T18:55:16.195Z,12.1
2019-04-22T19:00:03.070Z,12
2019-04-22T19:05:10.625Z,11.9
2019-04-22T19:10:28.544Z,11.9
2019-04-22T19:15:24.212Z,11.8
2019-04-22T19:20:30.738Z,11.8
2019-04-22T19:25:17.144Z,11.8
2019-04-22T19:30:21.715Z,11.8
2019-04-22T19:35:17.017Z,11.8
2019-04-22T19:40:23.763Z,11.7
2019-04-22T19:45:19.742Z,11.7
2019-04-22T19:50:27.092Z,11.7
2019-04-22T19:55:23.273Z,11.7
2019-04-22T20:00:18.997Z,11.8
2019-04-22T20:05:25.544Z,11.8
2019-04-22T20:10:24.518Z,11.7
2019-04-22T20:15:18.113Z,11.7
2019-04-22T20:20:27.037Z,11.7
2019-04-22T20:25:10.613Z,11.6
2019-04-22T20:30:22.839Z,11.5
2019-04-22T20:35:26.272Z,11.5
2019-04-22T20:40:22.905Z,11.4
2019-04-22T20:45:20.853Z,11.3
2019-04-22T20:50:23.343Z,11.3
2019-04-22T20:55:16.072Z,11.3
2019-04-22T21:00:19.488Z,11.2
2019-04-22T21:05:16.601Z,11.2
2019-04-22T21:10:18.216Z,11.1
2019-04-22T21:15:26.088Z,11.1
2019-04-22T21:20:25.727Z,11
2019-04-22T21:25:12.315Z,10.9
2019-04-22T21:30:22.855Z,10.9
2019-04-22T21:35:26.490Z,10.8
2019-04-22T21:40:22.602Z,10.8
2019-04-22T21:45:18.614Z,10.8
2019-04-22T21:55:22.439Z,10.7
2019-04-22T22:00:30.895Z,10.8
2019-04-22T22:05:15.187Z,10.8
2019-04-22T22:10:21.021Z,10.8
2019-04-22T22:15:18.434Z,10.9
2019-04-22T22:20:14.489Z,11
2019-04-22T22:25:23.505Z,11
2019-04-22T22:35:20.310Z,11
2019-04-22T22:40:09.086Z,11
2019-04-22T22:45:13.723Z,11
2019-04-22T22:50:19.868Z,11
2019-04-22T22:55:21.577Z,11
2019-04-22T23:00:19.271Z,11
2019-04-22T23:05:23.562Z,10.9
2019-04-22T23:10:24.311Z,10.9
2019-04-22T23:15:20.183Z,10.9
2019-04-22T23:20:03.743Z,10.9
2019-04-22T23:25:26.901Z,10.8
2019-04-22T23:30:08.723Z,10.8
2019-04-22T23:35:16.468Z,10.7
2019-04-22T23:40:28.984Z,10.8
2019-04-22T23:45:20.921Z,10.7
2019-04-22T23:50:19.508Z,10.8
2019-04-22T23:55:20.242Z,10.8
